Airfield :
LOGIN :

Register | Disclaimer

   EN    FR    IT 

 










Legend :    VFR   Marginal VFR   IFR   Intensive IFR   Very Intensive IFR
Visi :
Ceiling :
>= 8 km
>= 3000ft
5 to 8 km
1000 to 3000 ft
1500m to 5 km
500 to 1000 ft
800 to 1500m
200 to 500 ft
< 800m
< 200 ft
Symbols :   Thunderstorms  Fog  Heavy snow  Heavy precipitations  Wind > 20 kt
SIGMETs :     Misc.  Thunderstorms  Icing  Turbulence  Mountain Waves  Volcanic Ashes







- Airport Elevation : 187 ft


ETNW - Wunstorf AB

CURRENT METAR :
  • 191620Z 31005KT 9999 FEW050 SCT090 BKN220 26/11 Q1013 BLU+

EXPIRED METARs :
  • 191520Z 31007KT 9999 FEW045 SCT080 BKN230 25/11 Q1013 BLU+
  • 191420Z 31008KT 9999 SCT045 BKN250 24/12 Q1013 BLU+
  • 191320Z 30007KT 9999 FEW040 BKN250 26/12 Q1013 BLU+

TAF TAF ETNW
Valid from the 19 at 11:00 until the 20 at 11:00 UTC


191000Z 1911/2011 29010KT 9999 NSW SCT040 SCT300
BECMG 1918/1920 VRB03KT 9999 NSW SCT080 BKN150
BECMG 2005/2007 16010KT 9999 NSW FEW070 SCT180 BY ETGL
No reported NOTAMs for that airfield.



MET'MAP, your aeronautical weather chart ! - Copyright ORBIFLY December 2007 - Disclaimer

ORBIFLY MET'MAP TEAM :

Programming & Development : Alexandra Zaïnal
Concept & Development : Baudouin d'Aumeries
Co-Development & Prog : Marc-Olivier Méhu
Technical & hardware support : Manuel Goepfert

Contact : metmap@orbifly.com




SOURCES & CREDITS :

   NOAA